createdAt,value
2019-04-03T00:01:35.773Z,13.20
2019-04-03T00:04:05.245Z,13.20
2019-04-03T00:06:35.401Z,13.10
2019-04-03T00:09:06.589Z,13.10
2019-04-03T00:11:39.261Z,13.10
2019-04-03T00:14:08.265Z,12.90
2019-04-03T00:16:37.678Z,12.90
2019-04-03T00:19:07.071Z,12.80
2019-04-03T00:21:36.499Z,12.80
2019-04-03T00:24:05.873Z,12.80
2019-04-03T00:26:35.345Z,12.90
2019-04-03T00:29:04.642Z,12.70
2019-04-03T00:31:33.968Z,12.70
2019-04-03T00:34:03.270Z,12.70
2019-04-03T00:36:32.615Z,12.70
2019-04-03T00:39:02.004Z,12.70
2019-04-03T00:41:32.951Z,12.60
2019-04-03T00:44:02.524Z,12.60
2019-04-03T00:46:31.898Z,12.60
2019-04-03T00:49:01.230Z,12.60
2019-04-03T00:51:30.522Z,12.60
2019-04-03T00:53:59.888Z,12.60
2019-04-03T00:56:29.198Z,12.50
2019-04-03T00:58:58.611Z,12.40
2019-04-03T01:01:28.050Z,12.40
2019-04-03T01:03:58.802Z,12.40
2019-04-03T01:06:28.969Z,12.40
2019-04-03T01:08:59.384Z,12.40
2019-04-03T01:11:30.774Z,12.40
2019-04-03T01:14:01.554Z,12.40
2019-04-03T01:16:33.051Z,12.50
2019-04-03T01:19:05.762Z,12.50
2019-04-03T01:21:37.251Z,12.60
2019-04-03T01:24:08.292Z,12.50
2019-04-03T01:26:40.099Z,12.60
2019-04-03T01:29:08.467Z,12.60
2019-04-03T01:31:37.772Z,12.60
2019-04-03T01:34:07.095Z,12.60
2019-04-03T01:36:36.461Z,12.60
2019-04-03T01:39:07.041Z,12.60
2019-04-03T01:41:36.442Z,12.60
2019-04-03T01:44:05.763Z,12.60
2019-04-03T01:46:35.103Z,12.60
2019-04-03T01:49:04.536Z,12.60
2019-04-03T01:51:33.956Z,12.50
2019-04-03T01:54:03.633Z,12.40
2019-04-03T01:56:33.822Z,12.40
2019-04-03T01:59:04.783Z,12.30
2019-04-03T02:01:35.119Z,12.20
2019-04-03T02:04:04.754Z,12.10
2019-04-03T02:06:34.097Z,12.10
2019-04-03T02:09:05.300Z,12.00
2019-04-03T02:11:34.826Z,11.80
2019-04-03T02:14:04.164Z,11.80
2019-04-03T02:16:33.469Z,11.70
2019-04-03T02:19:02.802Z,11.60
2019-04-03T02:21:32.226Z,11.50
2019-04-03T02:24:01.793Z,11.30
2019-04-03T02:26:32.980Z,11.20
2019-04-03T02:29:04.496Z,11.10
2019-04-03T02:31:33.527Z,11.10
2019-04-03T02:34:03.295Z,11.10
2019-04-03T02:36:32.818Z,11.20
2019-04-03T02:39:02.141Z,11.30
2019-04-03T02:41:35.309Z,11.30
2019-04-03T02:44:04.836Z,11.20
2019-04-03T02:46:34.172Z,11.00
2019-04-03T02:49:04.748Z,11.00
2019-04-03T02:51:34.385Z,10.90
2019-04-03T02:54:05.955Z,10.90
2019-04-03T02:56:36.643Z,10.70
2019-04-03T02:59:05.988Z,10.70
2019-04-03T03:01:38.375Z,10.80
2019-04-03T03:04:06.582Z,10.70
2019-04-03T03:06:36.047Z,10.70
2019-04-03T03:09:06.345Z,10.60
2019-04-03T03:11:36.234Z,10.50
2019-04-03T03:14:07.282Z,10.40
2019-04-03T03:16:37.061Z,10.40
2019-04-03T03:19:06.904Z,10.40
2019-04-03T03:21:38.039Z,10.30
2019-04-03T03:24:07.723Z,10.20
2019-04-03T03:26:37.915Z,10.30
2019-04-03T03:29:16.505Z,10.30
2019-04-03T03:32:02.899Z,10.30
2019-04-03T03:34:10.532Z,10.30
2019-04-03T03:36:41.608Z,10.30
2019-04-03T03:39:12.168Z,10.30
2019-04-03T03:41:41.758Z,10.20
2019-04-03T03:44:11.866Z,10.10
2019-04-03T03:46:42.756Z,10.10
2019-04-03T03:49:15.905Z,10.10
2019-04-03T03:51:44.903Z,10.00
2019-04-03T03:54:16.694Z,10.10
2019-04-03T03:56:45.829Z,9.90
2019-04-03T03:59:17.601Z,10.00
2019-04-03T04:01:47.128Z,10.10
2019-04-03T04:04:16.634Z,10.10
2019-04-03T04:06:46.911Z,10.00
2019-04-03T04:09:17.917Z,10.10
2019-04-03T04:11:47.462Z,10.10
2019-04-03T04:14:21.119Z,10.00
2019-04-03T04:16:48.578Z,10.00
2019-04-03T04:19:18.312Z,10.10
2019-04-03T04:21:48.220Z,10.00
2019-04-03T04:24:18.528Z,9.90
2019-04-03T04:26:49.934Z,9.90
2019-04-03T04:29:19.598Z,10.00
2019-04-03T04:31:49.154Z,10.00
2019-04-03T04:34:19.255Z,9.70
2019-04-03T04:36:48.979Z,9.70
2019-04-03T04:39:19.555Z,9.80
2019-04-03T04:41:49.038Z,9.70
2019-04-03T04:44:18.443Z,9.70
2019-04-03T04:46:47.753Z,9.80
2019-04-03T04:49:17.069Z,9.90
2019-04-03T04:51:46.373Z,9.90
2019-04-03T04:54:15.741Z,9.80
2019-04-03T04:56:45.245Z,9.80
2019-04-03T04:59:14.686Z,9.90
2019-04-03T05:01:44.166Z,9.90
2019-04-03T05:04:15.118Z,9.90
2019-04-03T05:06:44.551Z,9.90
2019-04-03T05:09:13.876Z,10.00
2019-04-03T05:11:43.180Z,9.90
2019-04-03T05:14:12.511Z,9.80
2019-04-03T05:16:41.836Z,9.80
2019-04-03T05:19:17.867Z,9.80
2019-04-03T05:21:42.320Z,9.80
2019-04-03T05:24:13.747Z,9.80
2019-04-03T05:26:42.746Z,9.80
2019-04-03T05:29:12.137Z,9.60
2019-04-03T05:31:42.740Z,9.60
2019-04-03T05:34:13.329Z,9.60
2019-04-03T05:36:42.804Z,9.80
2019-04-03T05:39:12.217Z,9.90
2019-04-03T05:41:41.586Z,10.00
2019-04-03T05:44:11.099Z,10.00
2019-04-03T05:46:40.424Z,10.10
2019-04-03T05:49:10.983Z,10.20
2019-04-03T05:51:39.733Z,10.10
2019-04-03T05:54:10.236Z,10.10
2019-04-03T05:56:42.422Z,10.10
2019-04-03T05:59:10.608Z,10.20
2019-04-03T06:01:42.639Z,10.20
2019-04-03T06:04:10.961Z,10.40
2019-04-03T06:06:40.387Z,10.50
2019-04-03T06:09:09.745Z,10.50
2019-04-03T06:11:40.775Z,10.60
2019-04-03T06:14:10.182Z,10.60
2019-04-03T06:16:39.503Z,10.60
2019-04-03T06:19:08.805Z,10.70
2019-04-03T06:21:38.154Z,10.90
2019-04-03T06:24:07.815Z,10.90
2019-04-03T06:26:38.017Z,11.00
2019-04-03T06:29:08.091Z,11.10
2019-04-03T06:31:37.508Z,11.20
2019-04-03T06:34:08.039Z,11.20
2019-04-03T06:36:36.781Z,11.10
2019-04-03T06:39:07.907Z,11.00
2019-04-03T06:41:37.430Z,11.00
2019-04-03T06:44:06.830Z,11.00
2019-04-03T06:46:36.149Z,11.00
2019-04-03T06:49:08.189Z,11.10
2019-04-03T06:51:36.748Z,11.30
2019-04-03T06:54:08.129Z,11.30
2019-04-03T06:56:40.006Z,11.40
2019-04-03T06:59:09.430Z,11.40
2019-04-03T07:01:38.957Z,11.40
2019-04-03T07:04:08.337Z,11.50
2019-04-03T07:06:37.681Z,11.60
2019-04-03T07:09:07.791Z,11.60
2019-04-03T07:11:37.117Z,11.90
2019-04-03T07:14:06.484Z,12.00
2019-04-03T07:16:38.050Z,12.10
2019-04-03T07:19:08.455Z,12.10
2019-04-03T07:21:38.032Z,12.10
2019-04-03T07:24:07.596Z,12.10
2019-04-03T07:26:37.098Z,12.20
2019-04-03T07:29:06.642Z,12.20
2019-04-03T07:31:36.288Z,12.40
2019-04-03T07:34:05.707Z,12.60
2019-04-03T07:36:35.056Z,12.80
2019-04-03T07:39:10.491Z,12.80
2019-04-03T07:41:41.118Z,12.90
2019-04-03T07:44:09.614Z,13.00
2019-04-03T07:46:38.904Z,13.20
2019-04-03T07:49:09.056Z,13.30
2019-04-03T07:51:39.228Z,13.60
2019-04-03T07:54:08.997Z,13.70
2019-04-03T07:56:38.208Z,13.60
2019-04-03T07:59:07.544Z,13.30
2019-04-03T08:01:36.964Z,13.40
2019-04-03T08:04:06.550Z,13.60
2019-04-03T08:06:36.443Z,13.80
2019-04-03T08:09:26.374Z,13.80
2019-04-03T08:11:55.749Z,13.60
2019-04-03T08:14:25.073Z,13.50
2019-04-03T08:16:56.608Z,13.50
2019-04-03T08:19:25.458Z,13.40
2019-04-03T08:21:54.792Z,13.30
2019-04-03T08:24:24.088Z,13.30
2019-04-03T08:26:53.538Z,13.30
2019-04-03T08:29:24.043Z,13.30
2019-04-03T08:31:53.591Z,13.30
2019-04-03T08:34:23.053Z,13.10
2019-04-03T08:36:52.356Z,12.90
2019-04-03T08:39:21.716Z,13.00
2019-04-03T08:41:51.165Z,13.00
2019-04-03T08:44:20.629Z,12.90
2019-04-03T08:46:49.963Z,13.00
2019-04-03T08:49:20.413Z,12.90
2019-04-03T08:51:50.231Z,12.80
2019-04-03T08:54:19.612Z,12.80
2019-04-03T08:56:49.937Z,12.80
2019-04-03T08:59:19.357Z,12.60
2019-04-03T09:01:48.766Z,12.50
2019-04-03T09:04:18.109Z,12.30
2019-04-03T09:06:47.504Z,12.30
2019-04-03T09:09:16.897Z,12.40
2019-04-03T09:11:46.282Z,12.40
2019-04-03T09:14:15.611Z,12.50
2019-04-03T09:16:45.001Z,12.60
2019-04-03T09:19:16.805Z,12.50
2019-04-03T09:21:50.240Z,12.60
2019-04-03T09:24:16.351Z,12.70
2019-04-03T09:26:45.648Z,13.00
2019-04-03T09:29:14.968Z,13.20
2019-04-03T09:31:44.344Z,13.30
2019-04-03T09:34:14.018Z,13.40
2019-04-03T09:36:43.429Z,13.80
2019-04-03T09:39:14.406Z,14.00
2019-04-03T09:41:44.072Z,14.20
2019-04-03T09:44:13.618Z,14.30
2019-04-03T09:46:44.733Z,14.20
2019-04-03T09:49:14.188Z,14.00
2019-04-03T09:51:43.632Z,14.10
2019-04-03T09:54:13.023Z,14.20
2019-04-03T09:56:56.265Z,14.10
2019-04-03T09:59:15.469Z,14.20
2019-04-03T10:01:47.119Z,14.20
2019-04-03T10:04:15.457Z,14.40
2019-04-03T10:06:44.875Z,14.60
2019-04-03T10:09:14.337Z,14.70
2019-04-03T10:11:43.670Z,14.80
2019-04-03T10:14:13.074Z,15.20
2019-04-03T10:16:42.385Z,15.50
2019-04-03T10:19:13.545Z,15.30
2019-04-03T10:21:43.090Z,15.20
2019-04-03T10:24:12.484Z,15.50
2019-04-03T10:26:41.798Z,15.80
2019-04-03T10:29:11.206Z,16.30
2019-04-03T10:31:40.557Z,16.90
2019-04-03T10:34:09.914Z,17.60
2019-04-03T10:36:39.816Z,17.60
2019-04-03T10:39:13.047Z,17.20
2019-04-03T10:41:42.688Z,17.40
2019-04-03T10:44:12.156Z,18.40
2019-04-03T10:46:41.483Z,19.00
2019-04-03T10:49:10.925Z,19.30
2019-04-03T10:51:42.094Z,19.90
2019-04-03T10:54:10.956Z,20.60
2019-04-03T10:56:40.328Z,20.70
2019-04-03T10:59:13.035Z,20.90
2019-04-03T11:01:40.654Z,20.30
2019-04-03T11:04:10.035Z,20.30
2019-04-03T11:06:39.341Z,21.10
2019-04-03T11:09:09.278Z,21.90
2019-04-03T11:11:37.877Z,22.20
2019-04-03T11:14:08.108Z,22.10
2019-04-03T11:16:39.099Z,22.20
2019-04-03T11:19:08.585Z,23.30
2019-04-03T11:21:37.892Z,24.10
2019-04-03T11:24:07.399Z,23.80
2019-04-03T11:26:37.218Z,24.00
2019-04-03T11:29:08.741Z,24.00
2019-04-03T11:31:41.456Z,23.20
2019-04-03T11:34:08.056Z,24.10
2019-04-03T11:36:37.452Z,24.20
2019-04-03T11:39:14.948Z,24.00
2019-04-03T11:41:40.327Z,24.60
2019-04-03T11:44:09.764Z,24.90
2019-04-03T11:46:39.067Z,25.10
2019-04-03T11:49:08.902Z,25.60
2019-04-03T11:51:38.515Z,25.50
2019-04-03T11:54:08.622Z,25.10
2019-04-03T11:56:38.471Z,25.10
2019-04-03T11:59:07.859Z,25.00
2019-04-03T12:01:37.424Z,25.10
2019-04-03T12:04:06.224Z,25.60
2019-04-03T12:06:35.546Z,25.90
2019-04-03T12:09:07.265Z,26.20
2019-04-03T12:11:38.706Z,25.90
2019-04-03T12:14:07.681Z,25.70
2019-04-03T12:16:37.119Z,23.90
2019-04-03T12:19:06.550Z,23.30
2019-04-03T12:21:36.600Z,23.00
2019-04-03T12:24:05.232Z,22.70
2019-04-03T12:26:34.451Z,22.20
2019-04-03T12:29:06.922Z,21.90
2019-04-03T12:31:35.047Z,22.00
2019-04-03T12:34:06.672Z,21.70
2019-04-03T12:36:35.778Z,20.90
2019-04-03T12:39:08.632Z,20.40
2019-04-03T12:41:38.206Z,20.60
2019-04-03T12:44:07.503Z,21.40
2019-04-03T12:46:40.592Z,21.60
2019-04-03T12:49:08.860Z,21.50
2019-04-03T12:51:38.976Z,20.50
2019-04-03T12:54:07.805Z,19.70
2019-04-03T12:56:37.086Z,19.60
2019-04-03T12:59:08.854Z,20.60
2019-04-03T13:01:37.822Z,22.00
2019-04-03T13:04:07.277Z,22.40
2019-04-03T13:06:36.826Z,21.50
2019-04-03T13:09:08.796Z,20.70
2019-04-03T13:11:38.630Z,20.70
2019-04-03T13:14:08.303Z,20.10
2019-04-03T13:16:39.694Z,19.60
2019-04-03T13:19:09.920Z,19.30
2019-04-03T13:21:39.796Z,19.20
2019-04-03T13:24:11.911Z,19.20
2019-04-03T13:26:40.647Z,19.10
2019-04-03T13:29:09.984Z,19.00
2019-04-03T13:31:39.585Z,18.90
2019-04-03T13:34:11.174Z,18.40
2019-04-03T13:36:39.984Z,18.10
2019-04-03T13:39:09.724Z,18.10
2019-04-03T13:41:39.951Z,18.20
2019-04-03T13:44:10.236Z,17.70
2019-04-03T13:46:40.918Z,17.50
2019-04-03T13:49:10.434Z,17.80
2019-04-03T13:51:39.824Z,18.30
2019-04-03T13:54:09.482Z,18.30
2019-04-03T13:56:42.065Z,18.50
2019-04-03T13:59:16.220Z,18.50
2019-04-03T14:01:45.561Z,17.90
2019-04-03T14:04:29.544Z,17.40
2019-04-03T14:06:58.854Z,17.10
2019-04-03T14:09:29.270Z,16.70
2019-04-03T14:12:00.424Z,16.80
2019-04-03T14:14:29.765Z,16.60
2019-04-03T14:16:59.306Z,16.60
2019-04-03T14:19:28.776Z,16.60
2019-04-03T14:21:59.945Z,16.50
2019-04-03T14:24:38.106Z,17.10
2019-04-03T14:27:00.178Z,17.60
2019-04-03T14:29:30.195Z,17.60
2019-04-03T14:31:59.835Z,17.30
2019-04-03T14:34:30.401Z,16.90
2019-04-03T14:36:59.928Z,16.50
2019-04-03T14:39:29.246Z,16.00
2019-04-03T14:41:58.703Z,15.60
2019-04-03T14:44:28.225Z,15.30
2019-04-03T14:46:57.786Z,14.90
2019-04-03T14:49:30.820Z,14.70
2019-04-03T14:51:58.451Z,14.50
2019-04-03T14:54:30.332Z,14.40
2019-04-03T14:56:59.197Z,14.30
2019-04-03T14:59:30.614Z,14.10
2019-04-03T15:01:59.615Z,14.00
2019-04-03T15:04:32.527Z,13.80
2019-04-03T15:07:03.467Z,13.50
2019-04-03T15:09:31.007Z,13.00
2019-04-03T15:12:00.409Z,12.50
2019-04-03T15:14:29.833Z,12.50
2019-04-03T15:16:59.129Z,12.30
2019-04-03T15:19:30.174Z,11.80
2019-04-03T15:22:01.725Z,11.20
2019-04-03T15:24:31.644Z,10.80
2019-04-03T15:27:01.012Z,10.30
2019-04-03T15:29:30.664Z,10.10
2019-04-03T15:32:00.561Z,9.90
2019-04-03T15:34:30.002Z,9.90
2019-04-03T15:36:59.384Z,9.80
2019-04-03T15:39:28.685Z,9.50
2019-04-03T15:41:58.010Z,9.30
2019-04-03T15:44:28.887Z,9.10
2019-04-03T15:47:00.745Z,8.90
2019-04-03T15:49:29.755Z,8.80
2019-04-03T15:51:59.168Z,8.90
2019-04-03T15:54:31.476Z,8.90
2019-04-03T15:56:59.915Z,8.80
2019-04-03T15:59:30.751Z,8.60
2019-04-03T16:02:00.378Z,8.50
2019-04-03T16:04:29.748Z,8.10
2019-04-03T16:07:01.146Z,7.90
2019-04-03T16:09:30.074Z,7.60
2019-04-03T16:12:00.488Z,7.50
2019-04-03T16:14:31.862Z,7.40
2019-04-03T16:17:02.374Z,7.20
2019-04-03T16:19:32.664Z,7.30
2019-04-03T16:22:02.729Z,7.30
2019-04-03T16:24:32.457Z,7.30
2019-04-03T16:27:01.945Z,7.30
2019-04-03T16:29:31.476Z,7.40
2019-04-03T16:32:00.790Z,7.40
2019-04-03T16:34:30.272Z,7.40
2019-04-03T16:36:59.975Z,7.50
2019-04-03T16:39:31.817Z,7.50
2019-04-03T16:42:00.322Z,7.50
2019-04-03T16:44:29.871Z,7.40
2019-04-03T16:46:59.289Z,7.50
2019-04-03T16:49:28.783Z,7.50
2019-04-03T16:51:58.229Z,7.50
2019-04-03T16:54:29.120Z,7.50
2019-04-03T16:56:58.814Z,7.50
2019-04-03T16:59:28.292Z,7.40
2019-04-03T17:01:57.805Z,7.30
2019-04-03T17:04:28.732Z,7.30
2019-04-03T17:06:58.201Z,7.30
2019-04-03T17:09:27.735Z,7.30
2019-04-03T17:11:57.046Z,7.20
2019-04-03T17:14:26.463Z,7.20
2019-04-03T17:16:56.209Z,7.20
2019-04-03T17:19:25.690Z,7.20
2019-04-03T17:21:55.006Z,7.40
2019-04-03T17:24:25.885Z,7.50
2019-04-03T17:26:58.258Z,7.50
2019-04-03T17:29:26.776Z,7.50
2019-04-03T17:31:58.312Z,7.50
2019-04-03T17:34:27.890Z,7.50
2019-04-03T17:36:57.733Z,7.40
2019-04-03T17:39:27.114Z,7.50
2019-04-03T17:41:56.455Z,7.50
2019-04-03T17:44:25.887Z,7.50
2019-04-03T17:46:55.181Z,7.40
2019-04-03T17:49:28.304Z,7.30
2019-04-03T17:51:58.133Z,7.10
2019-04-03T17:54:28.766Z,7.10
2019-04-03T17:56:58.682Z,7.10
2019-04-03T17:59:28.009Z,7.10
2019-04-03T18:01:57.308Z,7.20
2019-04-03T18:04:26.784Z,7.20
2019-04-03T18:06:57.510Z,7.30
2019-04-03T18:09:27.512Z,7.40
2019-04-03T18:11:58.071Z,7.40
2019-04-03T18:14:28.531Z,7.40
2019-04-03T18:16:57.920Z,7.40
2019-04-03T18:19:36.849Z,7.50
2019-04-03T18:21:59.261Z,7.50
2019-04-03T18:24:28.568Z,7.40
2019-04-03T18:26:57.933Z,7.30
2019-04-03T18:29:27.458Z,7.30
2019-04-03T18:31:56.846Z,7.20
2019-04-03T18:34:26.175Z,7.20
2019-04-03T18:36:55.489Z,7.20
2019-04-03T18:39:24.804Z,7.20
2019-04-03T18:41:54.128Z,7.00
2019-04-03T18:44:26.080Z,7.10
2019-04-03T18:46:54.576Z,7.00
2019-04-03T18:49:23.902Z,7.00
2019-04-03T18:51:53.207Z,7.00
2019-04-03T18:54:22.539Z,7.10
2019-04-03T18:56:51.859Z,7.10
2019-04-03T18:59:21.217Z,7.10
2019-04-03T19:01:50.520Z,7.10
2019-04-03T19:04:19.834Z,7.00
2019-04-03T19:06:49.151Z,7.00
2019-04-03T19:09:21.028Z,6.90
2019-04-03T19:11:51.518Z,7.00
2019-04-03T19:14:27.083Z,7.00
2019-04-03T19:16:54.432Z,7.00
2019-04-03T19:19:23.842Z,7.00
2019-04-03T19:21:54.624Z,6.90
2019-04-03T19:24:25.699Z,7.00
2019-04-03T19:26:55.024Z,7.10
2019-04-03T19:29:24.615Z,7.30
2019-04-03T19:31:54.309Z,7.20
2019-04-03T19:34:23.738Z,7.20
2019-04-03T19:36:54.132Z,7.10
2019-04-03T19:39:23.462Z,7.10
2019-04-03T19:41:54.244Z,7.00
2019-04-03T19:44:23.914Z,7.00
2019-04-03T19:46:55.197Z,6.90
2019-04-03T19:49:27.482Z,6.80
2019-04-03T19:51:56.596Z,6.90
2019-04-03T19:54:26.429Z,6.90
2019-04-03T19:56:57.043Z,6.90
2019-04-03T19:59:29.992Z,6.90
2019-04-03T20:01:57.478Z,7.00
2019-04-03T20:04:26.862Z,7.00
2019-04-03T20:06:56.173Z,7.10
2019-04-03T20:09:25.625Z,7.00
2019-04-03T20:11:55.118Z,7.00
2019-04-03T20:14:24.488Z,7.00
2019-04-03T20:16:54.501Z,6.90
2019-04-03T20:19:24.888Z,6.80
2019-04-03T20:21:54.936Z,6.90
2019-04-03T20:24:25.333Z,6.90
2019-04-03T20:27:00.329Z,6.90
2019-04-03T20:29:31.774Z,6.90
2019-04-03T20:32:00.658Z,6.90
2019-04-03T20:34:29.956Z,6.80
2019-04-03T20:36:59.276Z,6.80
2019-04-03T20:39:29.051Z,6.80
2019-04-03T20:41:58.985Z,6.80
2019-04-03T20:44:28.272Z,6.80
2019-04-03T20:46:57.594Z,6.70
2019-04-03T20:49:26.988Z,6.60
2019-04-03T20:51:56.315Z,6.50
2019-04-03T20:54:25.624Z,6.50
2019-04-03T20:56:58.167Z,6.60
2019-04-03T20:59:25.952Z,6.70
2019-04-03T21:01:55.300Z,6.60
2019-04-03T21:04:26.740Z,6.70
2019-04-03T21:06:56.053Z,6.60
2019-04-03T21:09:25.374Z,6.50
2019-04-03T21:11:54.670Z,6.60
2019-04-03T21:14:24.068Z,6.60
2019-04-03T21:16:55.964Z,6.70
2019-04-03T21:19:24.384Z,6.70
2019-04-03T21:21:53.698Z,6.60
2019-04-03T21:24:22.994Z,6.50
2019-04-03T21:26:52.308Z,6.50
2019-04-03T21:29:21.608Z,6.60
2019-04-03T21:31:50.929Z,6.60
2019-04-03T21:34:20.223Z,6.50
2019-04-03T21:37:01.604Z,6.60
2019-04-03T21:39:33.577Z,6.60
2019-04-03T21:42:01.925Z,6.50
2019-04-03T21:44:31.993Z,6.50
2019-04-03T21:47:01.818Z,6.50
2019-04-03T21:49:31.161Z,6.40
2019-04-03T21:52:00.480Z,6.30
2019-04-03T21:54:29.825Z,6.20
2019-04-03T21:56:59.115Z,6.20
2019-04-03T21:59:28.417Z,6.30
2019-04-03T22:01:57.758Z,6.20
2019-04-03T22:04:27.116Z,6.30
2019-04-03T22:06:57.777Z,6.20
2019-04-03T22:09:28.824Z,6.20
2019-04-03T22:11:58.698Z,6.10
2019-04-03T22:14:28.100Z,6.00
2019-04-03T22:16:57.474Z,5.90
2019-04-03T22:19:28.228Z,5.60
2019-04-03T22:21:58.880Z,5.40
2019-04-03T22:24:28.199Z,5.50
2019-04-03T22:26:57.493Z,5.60
2019-04-03T22:29:26.812Z,5.60
2019-04-03T22:31:56.205Z,5.50
2019-04-03T22:34:25.528Z,5.60
2019-04-03T22:36:54.818Z,5.60
2019-04-03T22:39:24.221Z,5.60
2019-04-03T22:41:53.573Z,5.70
2019-04-03T22:44:22.917Z,5.70
2019-04-03T22:46:54.123Z,5.60
2019-04-03T22:49:23.332Z,5.60
2019-04-03T22:51:52.835Z,5.60
2019-04-03T22:54:22.134Z,5.60
2019-04-03T22:56:51.453Z,5.30
2019-04-03T22:59:23.456Z,5.30
2019-04-03T23:01:51.761Z,5.40
2019-04-03T23:04:21.056Z,5.50
2019-04-03T23:06:50.381Z,5.30
2019-04-03T23:09:19.680Z,5.20
2019-04-03T23:11:48.997Z,5.30
2019-04-03T23:14:18.334Z,5.30
2019-04-03T23:16:48.743Z,5.40
2019-04-03T23:19:18.616Z,5.50
2019-04-03T23:21:48.163Z,5.50
2019-04-03T23:24:17.462Z,5.50
2019-04-03T23:26:46.881Z,5.50
2019-04-03T23:29:16.172Z,5.60
2019-04-03T23:31:45.492Z,5.40
2019-04-03T23:34:14.800Z,5.40
2019-04-03T23:36:56.492Z,5.50
2019-04-03T23:39:37.597Z,5.60
2019-04-03T23:42:07.497Z,5.50
2019-04-03T23:44:36.971Z,5.50
2019-04-03T23:47:06.263Z,5.20
2019-04-03T23:49:35.571Z,5.30
2019-04-03T23:52:04.961Z,5.40
2019-04-03T23:54:34.577Z,5.40
2019-04-03T23:57:04.258Z,5.30
2019-04-03T23:59:33.506Z,5.20
